sensor_id;sensor_type;location;lat;lon;timestamp;pressure;altitude;pressure_sealevel;temperature;humidity
17072;BME280;7731;50.720;6.912;2022-09-24T00:00:11;99859.09;;;11.86;100.00
17072;BME280;7731;50.720;6.912;2022-09-24T00:02:41;99866.50;;;11.76;100.00
17072;BME280;7731;50.720;6.912;2022-09-24T00:05:11;99858.50;;;11.66;100.00
17072;BME280;7731;50.720;6.912;2022-09-24T00:07:41;99857.47;;;11.54;100.00
17072;BME280;7731;50.720;6.912;2022-09-24T00:10:16;99856.75;;;11.52;100.00
17072;BME280;7731;50.720;6.912;2022-09-24T00:12:47;99859.66;;;11.46;100.00
17072;BME280;7731;50.720;6.912;2022-09-24T00:15:19;99852.22;;;11.56;100.00
17072;BME280;7731;50.720;6.912;2022-09-24T00:17:52;99842.63;;;11.74;100.00
17072;BME280;7731;50.720;6.912;2022-09-24T00:20:23;99854.22;;;11.81;100.00
17072;BME280;7731;50.720;6.912;2022-09-24T00:22:53;99844.66;;;11.83;100.00
17072;BME280;7731;50.720;6.912;2022-09-24T00:25:28;99857.47;;;11.54;100.00
17072;BME280;7731;50.720;6.912;2022-09-24T00:28:12;99838.66;;;11.23;100.00
17072;BME280;7731;50.720;6.912;2022-09-24T00:30:43;99846.13;;;11.42;100.00
17072;BME280;7731;50.720;6.912;2022-09-24T00:33:24;99844.59;;;11.54;100.00
17072;BME280;7731;50.720;6.912;2022-09-24T00:36:04;99840.22;;;11.71;100.00
17072;BME280;7731;50.720;6.912;2022-09-24T00:38:35;99840.22;;;11.71;100.00
17072;BME280;7731;50.720;6.912;2022-09-24T00:41:10;99833.44;;;11.84;100.00
17072;BME280;7731;50.720;6.912;2022-09-24T00:43:40;99834.16;;;11.86;100.00
17072;BME280;7731;50.720;6.912;2022-09-24T00:46:19;99830.66;;;11.58;100.00
17072;BME280;7731;50.720;6.912;2022-09-24T00:49:02;99845.13;;;11.45;100.00
17072;BME280;7731;50.720;6.912;2022-09-24T00:51:33;99842.63;;;11.59;100.00
17072;BME280;7731;50.720;6.912;2022-09-24T00:54:08;99835.91;;;11.71;100.00
17072;BME280;7731;50.720;6.912;2022-09-24T00:56:45;99838.16;;;11.47;100.00
17072;BME280;7731;50.720;6.912;2022-09-24T00:59:21;99832.66;;;11.53;100.00
17072;BME280;7731;50.720;6.912;2022-09-24T01:01:53;99820.00;;;11.79;100.00
17072;BME280;7731;50.720;6.912;2022-09-24T01:04:27;99829.22;;;11.69;100.00
17072;BME280;7731;50.720;6.912;2022-09-24T01:06:57;99822.28;;;11.55;100.00
17072;BME280;7731;50.720;6.912;2022-09-24T01:09:30;99825.56;;;11.42;100.00
17072;BME280;7731;50.720;6.912;2022-09-24T01:12:15;99812.69;;;11.42;100.00
17072;BME280;7731;50.720;6.912;2022-09-24T01:15:07;99814.97;;;11.33;100.00
17072;BME280;7731;50.720;6.912;2022-09-24T01:17:51;99811.84;;;11.28;100.00
17072;BME280;7731;50.720;6.912;2022-09-24T01:21:05;99807.53;;;11.28;100.00
17072;BME280;7731;50.720;6.912;2022-09-24T01:24:22;99807.59;;;11.12;100.00
17072;BME280;7731;50.720;6.912;2022-09-24T01:27:10;99810.09;;;10.98;100.00
17072;BME280;7731;50.720;6.912;2022-09-24T01:30:01;99807.16;;;10.89;100.00
17072;BME280;7731;50.720;6.912;2022-09-24T01:32:38;99803.16;;;10.84;100.00
17072;BME280;7731;50.720;6.912;2022-09-24T01:35:15;99808.47;;;10.97;100.00
17072;BME280;7731;50.720;6.912;2022-09-24T01:37:55;99806.84;;;10.80;100.00
17072;BME280;7731;50.720;6.912;2022-09-24T01:40:29;99795.72;;;10.79;100.00
17072;BME280;7731;50.720;6.912;2022-09-24T01:43:03;99795.31;;;11.32;100.00
17072;BME280;7731;50.720;6.912;2022-09-24T01:45:41;99787.63;;;11.60;100.00
17072;BME280;7731;50.720;6.912;2022-09-24T01:48:13;99787.38;;;11.06;100.00
17072;BME280;7731;50.720;6.912;2022-09-24T01:50:54;99796.53;;;10.96;100.00
17072;BME280;7731;50.720;6.912;2022-09-24T01:53:30;99798.34;;;10.94;100.00
17072;BME280;7731;50.720;6.912;2022-09-24T01:56:07;99799.22;;;10.78;100.00
17072;BME280;7731;50.720;6.912;2022-09-24T01:58:45;99800.44;;;10.87;100.00
17072;BME280;7731;50.720;6.912;2022-09-24T02:01:24;99795.53;;;10.82;100.00
17072;BME280;7731;50.720;6.912;2022-09-24T02:04:07;99794.94;;;10.63;100.00
17072;BME280;7731;50.720;6.912;2022-09-24T02:06:45;99798.56;;;10.59;100.00
17072;BME280;7731;50.720;6.912;2022-09-24T02:09:31;99800.06;;;10.63;100.00
17072;BME280;7731;50.720;6.912;2022-09-24T02:12:07;99796.56;;;10.64;100.00
17072;BME280;7731;50.720;6.912;2022-09-24T02:14:44;99786.78;;;10.54;100.00
17072;BME280;7731;50.720;6.912;2022-09-24T02:17:24;99786.13;;;10.67;100.00
17072;BME280;7731;50.720;6.912;2022-09-24T02:20:11;99786.75;;;10.86;100.00
17072;BME280;7731;50.720;6.912;2022-09-24T02:22:51;99781.22;;;10.78;100.00
17072;BME280;7731;50.720;6.912;2022-09-24T02:25:30;99784.06;;;10.58;100.00
17072;BME280;7731;50.720;6.912;2022-09-24T02:28:05;99773.09;;;10.70;100.00
17072;BME280;7731;50.720;6.912;2022-09-24T02:30:43;99772.06;;;10.42;100.00
17072;BME280;7731;50.720;6.912;2022-09-24T02:33:21;99767.25;;;10.52;100.00
17072;BME280;7731;50.720;6.912;2022-09-24T02:36:06;99755.47;;;10.64;100.00
17072;BME280;7731;50.720;6.912;2022-09-24T02:38:37;99753.50;;;10.53;100.00
17072;BME280;7731;50.720;6.912;2022-09-24T02:41:10;99756.66;;;10.42;100.00
17072;BME280;7731;50.720;6.912;2022-09-24T02:43:40;99760.63;;;10.48;100.00
17072;BME280;7731;50.720;6.912;2022-09-24T02:46:10;99758.97;;;10.31;100.00
17072;BME280;7731;50.720;6.912;2022-09-24T02:48:43;99762.84;;;10.06;100.00
17072;BME280;7731;50.720;6.912;2022-09-24T02:51:13;99766.00;;;10.11;100.00
17072;BME280;7731;50.720;6.912;2022-09-24T02:53:43;99762.34;;;10.15;100.00
17072;BME280;7731;50.720;6.912;2022-09-24T02:56:14;99762.03;;;10.22;100.00
17072;BME280;7731;50.720;6.912;2022-09-24T02:58:44;99768.88;;;10.21;100.00
17072;BME280;7731;50.720;6.912;2022-09-24T03:01:16;99757.06;;;10.18;100.00
17072;BME280;7731;50.720;6.912;2022-09-24T03:03:50;99760.03;;;10.27;100.00
17072;BME280;7731;50.720;6.912;2022-09-24T03:06:22;99759.97;;;10.44;100.00
17072;BME280;7731;50.720;6.912;2022-09-24T03:08:54;99761.31;;;10.35;100.00
17072;BME280;7731;50.720;6.912;2022-09-24T03:11:24;99765.84;;;10.46;100.00
17072;BME280;7731;50.720;6.912;2022-09-24T03:13:55;99758.66;;;10.37;100.00
17072;BME280;7731;50.720;6.912;2022-09-24T03:16:25;99765.41;;;10.22;100.00
17072;BME280;7731;50.720;6.912;2022-09-24T03:19:02;99767.56;;;10.46;100.00
17072;BME280;7731;50.720;6.912;2022-09-24T03:21:32;99757.13;;;10.65;100.00
17072;BME280;7731;50.720;6.912;2022-09-24T03:24:03;99759.72;;;10.95;100.00
17072;BME280;7731;50.720;6.912;2022-09-24T03:26:33;99764.00;;;10.95;100.00
17072;BME280;7731;50.720;6.912;2022-09-24T03:29:04;99759.53;;;10.98;100.00
17072;BME280;7731;50.720;6.912;2022-09-24T03:31:34;99761.00;;;11.02;100.00
17072;BME280;7731;50.720;6.912;2022-09-24T03:34:04;99762.03;;;11.00;100.00
17072;BME280;7731;50.720;6.912;2022-09-24T03:36:34;99746.28;;;11.35;100.00
17072;BME280;7731;50.720;6.912;2022-09-24T03:39:05;99752.91;;;11.24;100.00
17072;BME280;7731;50.720;6.912;2022-09-24T03:41:38;99754.59;;;11.10;100.00
17072;BME280;7731;50.720;6.912;2022-09-24T03:44:08;99745.13;;;11.10;100.00
17072;BME280;7731;50.720;6.912;2022-09-24T03:46:38;99745.81;;;11.14;100.00
17072;BME280;7731;50.720;6.912;2022-09-24T03:49:11;99741.84;;;11.08;100.00
17072;BME280;7731;50.720;6.912;2022-09-24T03:51:41;99740.16;;;10.93;100.00
17072;BME280;7731;50.720;6.912;2022-09-24T03:54:11;99736.31;;;11.00;100.00
17072;BME280;7731;50.720;6.912;2022-09-24T03:56:41;99738.81;;;11.01;100.00
17072;BME280;7731;50.720;6.912;2022-09-24T03:59:14;99734.56;;;11.00;100.00
17072;BME280;7731;50.720;6.912;2022-09-24T04:01:44;99736.75;;;10.92;100.00
17072;BME280;7731;50.720;6.912;2022-09-24T04:04:25;99738.84;;;10.85;100.00
17072;BME280;7731;50.720;6.912;2022-09-24T04:07:01;99736.34;;;10.84;100.00
17072;BME280;7731;50.720;6.912;2022-09-24T04:09:31;99716.63;;;10.84;100.00
17072;BME280;7731;50.720;6.912;2022-09-24T04:12:05;99727.84;;;10.98;100.00
17072;BME280;7731;50.720;6.912;2022-09-24T04:14:35;99728.56;;;10.85;100.00
17072;BME280;7731;50.720;6.912;2022-09-24T04:17:05;99721.25;;;10.94;100.00
17072;BME280;7731;50.720;6.912;2022-09-24T04:19:38;99715.97;;;10.81;100.00
17072;BME280;7731;50.720;6.912;2022-09-24T04:22:08;99711.34;;;10.71;100.00
17072;BME280;7731;50.720;6.912;2022-09-24T04:24:41;99704.53;;;10.86;100.00
17072;BME280;7731;50.720;6.912;2022-09-24T04:27:12;99700.88;;;11.19;100.00
17072;BME280;7731;50.720;6.912;2022-09-24T04:29:44;99694.47;;;11.12;100.00
17072;BME280;7731;50.720;6.912;2022-09-24T04:32:14;99694.47;;;11.41;100.00
17072;BME280;7731;50.720;6.912;2022-09-24T04:34:47;99700.72;;;11.22;100.00
17072;BME280;7731;50.720;6.912;2022-09-24T04:37:17;99699.88;;;11.22;100.00
17072;BME280;7731;50.720;6.912;2022-09-24T04:39:47;99697.03;;;11.12;100.00
17072;BME280;7731;50.720;6.912;2022-09-24T04:42:18;99701.63;;;11.36;100.00
17072;BME280;7731;50.720;6.912;2022-09-24T04:44:48;99691.91;;;11.12;100.00
17072;BME280;7731;50.720;6.912;2022-09-24T04:47:25;99697.78;;;11.14;100.00
17072;BME280;7731;50.720;6.912;2022-09-24T04:49:57;99699.53;;;11.14;100.00
17072;BME280;7731;50.720;6.912;2022-09-24T04:52:31;99688.59;;;11.24;100.00
17072;BME280;7731;50.720;6.912;2022-09-24T04:55:02;99689.69;;;11.20;100.00
17072;BME280;7731;50.720;6.912;2022-09-24T04:57:32;99693.75;;;11.24;100.00
17072;BME280;7731;50.720;6.912;2022-09-24T05:00:11;99688.03;;;11.19;100.00
17072;BME280;7731;50.720;6.912;2022-09-24T05:02:44;99694.47;;;11.26;100.00
17072;BME280;7731;50.720;6.912;2022-09-24T05:05:17;99685.28;;;11.22;100.00
17072;BME280;7731;50.720;6.912;2022-09-24T05:07:49;99685.00;;;11.13;100.00
17072;BME280;7731;50.720;6.912;2022-09-24T05:10:22;99687.84;;;11.08;100.00
17072;BME280;7731;50.720;6.912;2022-09-24T05:12:56;99686.19;;;11.07;100.00
17072;BME280;7731;50.720;6.912;2022-09-24T05:15:26;99690.34;;;11.10;100.00
17072;BME280;7731;50.720;6.912;2022-09-24T05:17:56;99694.94;;;11.04;100.00
17072;BME280;7731;50.720;6.912;2022-09-24T05:20:32;99688.22;;;11.02;100.00
17072;BME280;7731;50.720;6.912;2022-09-24T05:23:02;99685.72;;;11.00;100.00
17072;BME280;7731;50.720;6.912;2022-09-24T05:25:33;99680.50;;;11.16;100.00
17072;BME280;7731;50.720;6.912;2022-09-24T05:28:24;99689.03;;;11.02;100.00
17072;BME280;7731;50.720;6.912;2022-09-24T05:30:56;99685.91;;;10.97;100.00
17072;BME280;7731;50.720;6.912;2022-09-24T05:33:26;99691.13;;;10.81;100.00
17072;BME280;7731;50.720;6.912;2022-09-24T05:35:59;99692.63;;;10.69;100.00
17072;BME280;7731;50.720;6.912;2022-09-24T05:38:29;99694.06;;;10.89;100.00
17072;BME280;7731;50.720;6.912;2022-09-24T05:40:59;99694.59;;;10.80;100.00
17072;BME280;7731;50.720;6.912;2022-09-24T05:43:37;99698.94;;;10.94;100.00
17072;BME280;7731;50.720;6.912;2022-09-24T05:46:07;99705.44;;;10.85;100.00
17072;BME280;7731;50.720;6.912;2022-09-24T05:48:37;99706.72;;;10.93;100.00
17072;BME280;7731;50.720;6.912;2022-09-24T05:51:10;99708.13;;;10.98;100.00
17072;BME280;7731;50.720;6.912;2022-09-24T05:53:40;99703.97;;;10.81;100.00
17072;BME280;7731;50.720;6.912;2022-09-24T05:56:13;99708.13;;;10.98;100.00
17072;BME280;7731;50.720;6.912;2022-09-24T05:58:46;99712.59;;;10.95;100.00
17072;BME280;7731;50.720;6.912;2022-09-24T06:01:17;99712.78;;;10.92;100.00
17072;BME280;7731;50.720;6.912;2022-09-24T06:03:47;99713.28;;;10.98;100.00
17072;BME280;7731;50.720;6.912;2022-09-24T06:06:23;99713.91;;;11.02;100.00
17072;BME280;7731;50.720;6.912;2022-09-24T06:08:54;99709.31;;;11.07;100.00
17072;BME280;7731;50.720;6.912;2022-09-24T06:11:24;99711.34;;;11.16;100.00
17072;BME280;7731;50.720;6.912;2022-09-24T06:14:15;99700.72;;;11.51;100.00
17072;BME280;7731;50.720;6.912;2022-09-24T06:16:46;99704.94;;;11.67;100.00
17072;BME280;7731;50.720;6.912;2022-09-24T06:19:16;99704.38;;;11.90;100.00
17072;BME280;7731;50.720;6.912;2022-09-24T06:21:48;99709.50;;;11.90;100.00
17072;BME280;7731;50.720;6.912;2022-09-24T06:24:19;99714.56;;;11.92;100.00
17072;BME280;7731;50.720;6.912;2022-09-24T06:26:56;99710.06;;;11.95;100.00
17072;BME280;7731;50.720;6.912;2022-09-24T06:29:28;99716.88;;;11.82;100.00
17072;BME280;7731;50.720;6.912;2022-09-24T06:31:58;99717.25;;;11.90;100.00
17072;BME280;7731;50.720;6.912;2022-09-24T06:34:28;99728.25;;;12.07;100.00
17072;BME280;7731;50.720;6.912;2022-09-24T06:37:01;99721.66;;;12.03;100.00
17072;BME280;7731;50.720;6.912;2022-09-24T06:39:31;99728.81;;;11.97;100.00
17072;BME280;7731;50.720;6.912;2022-09-24T06:42:01;99727.66;;;12.16;100.00
17072;BME280;7731;50.720;6.912;2022-09-24T06:44:33;99729.47;;;12.28;100.00
17072;BME280;7731;50.720;6.912;2022-09-24T06:47:03;99727.84;;;12.27;100.00
17072;BME280;7731;50.720;6.912;2022-09-24T06:49:33;99737.56;;;12.37;100.00
17072;BME280;7731;50.720;6.912;2022-09-24T06:52:06;99741.09;;;12.21;100.00
17072;BME280;7731;50.720;6.912;2022-09-24T06:54:37;99732.25;;;12.25;100.00
17072;BME280;7731;50.720;6.912;2022-09-24T06:57:07;99723.03;;;12.36;100.00
17072;BME280;7731;50.720;6.912;2022-09-24T06:59:37;99732.34;;;12.24;100.00
17072;BME280;7731;50.720;6.912;2022-09-24T07:02:08;99733.31;;;12.36;100.00
17072;BME280;7731;50.720;6.912;2022-09-24T07:04:39;99725.78;;;12.32;100.00
17072;BME280;7731;50.720;6.912;2022-09-24T07:07:19;99722.72;;;12.67;100.00
17072;BME280;7731;50.720;6.912;2022-09-24T07:10:05;99720.69;;;12.98;100.00
17072;BME280;7731;50.720;6.912;2022-09-24T07:12:36;99724.88;;;13.39;100.00
17072;BME280;7731;50.720;6.912;2022-09-24T07:15:08;99726.06;;;13.72;96.02
17072;BME280;7731;50.720;6.912;2022-09-24T07:17:38;99722.94;;;13.93;94.47
17072;BME280;7731;50.720;6.912;2022-09-24T07:20:09;99720.09;;;13.59;96.86
17072;BME280;7731;50.720;6.912;2022-09-24T07:22:44;99720.78;;;13.74;94.99
17072;BME280;7731;50.720;6.912;2022-09-24T07:25:14;99723.69;;;13.69;96.51
17072;BME280;7731;50.720;6.912;2022-09-24T07:27:47;99727.19;;;13.81;94.73
17072;BME280;7731;50.720;6.912;2022-09-24T07:30:18;99734.13;;;13.81;95.08
17072;BME280;7731;50.720;6.912;2022-09-24T07:32:54;99735.19;;;13.39;97.87
17072;BME280;7731;50.720;6.912;2022-09-24T07:35:25;99730.91;;;13.00;100.00
17072;BME280;7731;50.720;6.912;2022-09-24T07:38:04;99733.94;;;13.32;98.75
17072;BME280;7731;50.720;6.912;2022-09-24T07:40:34;99734.22;;;13.66;96.46
17072;BME280;7731;50.720;6.912;2022-09-24T07:43:05;99730.66;;;14.30;92.24
17072;BME280;7731;50.720;6.912;2022-09-24T07:45:41;99729.72;;;13.94;93.52
17072;BME280;7731;50.720;6.912;2022-09-24T07:48:12;99731.59;;;14.29;92.72
17072;BME280;7731;50.720;6.912;2022-09-24T07:50:42;99731.47;;;14.55;91.23
17072;BME280;7731;50.720;6.912;2022-09-24T07:53:21;99738.63;;;14.27;94.24
17072;BME280;7731;50.720;6.912;2022-09-24T07:55:58;99739.00;;;14.09;97.63
17072;BME280;7731;50.720;6.912;2022-09-24T07:58:28;99737.41;;;14.20;96.67
17072;BME280;7731;50.720;6.912;2022-09-24T08:01:05;99746.53;;;14.37;97.62
17072;BME280;7731;50.720;6.912;2022-09-24T08:03:35;99742.16;;;14.50;97.14
17072;BME280;7731;50.720;6.912;2022-09-24T08:06:07;99748.13;;;14.26;98.09
17072;BME280;7731;50.720;6.912;2022-09-24T08:08:40;99751.13;;;14.33;98.11
17072;BME280;7731;50.720;6.912;2022-09-24T08:11:19;99751.63;;;14.01;97.41
17072;BME280;7731;50.720;6.912;2022-09-24T08:13:49;99743.94;;;14.13;97.39
17072;BME280;7731;50.720;6.912;2022-09-24T08:16:23;99751.47;;;14.16;98.93
17072;BME280;7731;50.720;6.912;2022-09-24T08:18:56;99750.72;;;14.51;98.83
17072;BME280;7731;50.720;6.912;2022-09-24T08:21:27;99755.16;;;14.24;100.00
17072;BME280;7731;50.720;6.912;2022-09-24T08:24:04;99744.19;;;14.58;100.00
17072;BME280;7731;50.720;6.912;2022-09-24T08:26:38;99746.84;;;14.69;98.72
17072;BME280;7731;50.720;6.912;2022-09-24T08:29:08;99749.66;;;14.66;96.64
17072;BME280;7731;50.720;6.912;2022-09-24T08:31:38;99747.38;;;15.44;95.19
17072;BME280;7731;50.720;6.912;2022-09-24T08:34:12;99739.25;;;15.94;89.16
17072;BME280;7731;50.720;6.912;2022-09-24T08:36:42;99745.34;;;16.04;89.05
17072;BME280;7731;50.720;6.912;2022-09-24T08:39:15;99743.03;;;16.66;84.07
17072;BME280;7731;50.720;6.912;2022-09-24T08:41:55;99738.50;;;16.79;84.23
17072;BME280;7731;50.720;6.912;2022-09-24T08:44:34;99742.94;;;17.61;77.58
17072;BME280;7731;50.720;6.912;2022-09-24T08:47:32;99743.84;;;16.45;83.66
17072;BME280;7731;50.720;6.912;2022-09-24T08:50:14;99738.50;;;17.52;78.04
17072;BME280;7731;50.720;6.912;2022-09-24T08:53:09;99732.75;;;17.39;78.81
17072;BME280;7731;50.720;6.912;2022-09-24T08:55:52;99741.72;;;17.96;74.84
17072;BME280;7731;50.720;6.912;2022-09-24T08:58:35;99736.28;;;18.09;73.77
17072;BME280;7731;50.720;6.912;2022-09-24T09:01:29;99744.88;;;18.00;73.37
17072;BME280;7731;50.720;6.912;2022-09-24T09:04:15;99744.91;;;15.87;87.08
17072;BME280;7731;50.720;6.912;2022-09-24T09:07:05;99748.84;;;16.90;83.80
17072;BME280;7731;50.720;6.912;2022-09-24T09:09:48;99741.81;;;17.23;81.93
17072;BME280;7731;50.720;6.912;2022-09-24T09:12:28;99739.69;;;17.38;79.48
17072;BME280;7731;50.720;6.912;2022-09-24T09:15:03;99739.13;;;17.65;78.77
17072;BME280;7731;50.720;6.912;2022-09-24T09:17:42;99734.13;;;18.63;71.66
17072;BME280;7731;50.720;6.912;2022-09-24T09:20:20;99737.25;;;18.67;72.93
17072;BME280;7731;50.720;6.912;2022-09-24T09:22:52;99737.13;;;18.88;70.94
17072;BME280;7731;50.720;6.912;2022-09-24T09:25:33;99740.25;;;18.72;72.12
17072;BME280;7731;50.720;6.912;2022-09-24T09:28:12;99734.78;;;17.76;75.68
17072;BME280;7731;50.720;6.912;2022-09-24T09:31:00;99744.84;;;17.59;77.94
17072;BME280;7731;50.720;6.912;2022-09-24T09:33:53;99747.56;;;17.06;82.54
17072;BME280;7731;50.720;6.912;2022-09-24T09:36:48;99751.34;;;17.44;79.50
17072;BME280;7731;50.720;6.912;2022-09-24T09:39:36;99749.38;;;17.05;81.72
17072;BME280;7731;50.720;6.912;2022-09-24T09:42:25;99754.38;;;16.97;82.39
17072;BME280;7731;50.720;6.912;2022-09-24T09:45:14;99753.59;;;16.74;83.73
17072;BME280;7731;50.720;6.912;2022-09-24T09:47:55;99747.19;;;17.31;80.92
17072;BME280;7731;50.720;6.912;2022-09-24T09:50:35;99752.78;;;17.06;83.80
17072;BME280;7731;50.720;6.912;2022-09-24T09:53:18;99746.81;;;17.15;83.20
17072;BME280;7731;50.720;6.912;2022-09-24T09:55:54;99749.94;;;17.71;80.38
17072;BME280;7731;50.720;6.912;2022-09-24T09:58:29;99753.50;;;18.10;78.45
17072;BME280;7731;50.720;6.912;2022-09-24T10:01:08;99747.44;;;17.90;80.00
17072;BME280;7731;50.720;6.912;2022-09-24T10:03:47;99749.84;;;17.82;78.81
17072;BME280;7731;50.720;6.912;2022-09-24T10:06:25;99756.84;;;16.99;81.74
17072;BME280;7731;50.720;6.912;2022-09-24T10:09:10;99743.81;;;17.81;77.81
17072;BME280;7731;50.720;6.912;2022-09-24T10:11:41;99739.72;;;17.79;76.33
17072;BME280;7731;50.720;6.912;2022-09-24T10:14:14;99746.41;;;17.72;77.98
17072;BME280;7731;50.720;6.912;2022-09-24T10:16:53;99741.56;;;17.57;78.42
17072;BME280;7731;50.720;6.912;2022-09-24T10:19:26;99751.41;;;17.02;83.71
17072;BME280;7731;50.720;6.912;2022-09-24T10:22:06;99744.41;;;17.02;83.51
17072;BME280;7731;50.720;6.912;2022-09-24T10:24:42;99740.78;;;17.66;79.80
17072;BME280;7731;50.720;6.912;2022-09-24T10:27:28;99738.44;;;17.94;79.06
17072;BME280;7731;50.720;6.912;2022-09-24T10:30:11;99739.84;;;18.18;77.36
17072;BME280;7731;50.720;6.912;2022-09-24T10:33:00;99734.53;;;18.29;76.28
17072;BME280;7731;50.720;6.912;2022-09-24T10:35:34;99735.75;;;17.75;77.05
17072;BME280;7731;50.720;6.912;2022-09-24T10:38:17;99735.72;;;18.06;76.16
17072;BME280;7731;50.720;6.912;2022-09-24T10:40:50;99731.34;;;17.35;79.03
17072;BME280;7731;50.720;6.912;2022-09-24T10:43:21;99733.13;;;17.75;78.49
17072;BME280;7731;50.720;6.912;2022-09-24T10:46:35;99737.81;;;17.81;78.87
17072;BME280;7731;50.720;6.912;2022-09-24T10:49:30;99735.44;;;17.68;79.54
17072;BME280;7731;50.720;6.912;2022-09-24T10:52:22;99730.66;;;17.33;81.19
17072;BME280;7731;50.720;6.912;2022-09-24T10:55:06;99729.81;;;17.63;80.17
17072;BME280;7731;50.720;6.912;2022-09-24T10:57:56;99731.63;;;17.72;78.10
17072;BME280;7731;50.720;6.912;2022-09-24T11:00:39;99727.94;;;17.75;79.11
17072;BME280;7731;50.720;6.912;2022-09-24T11:03:52;99728.75;;;18.06;76.63
17072;BME280;7731;50.720;6.912;2022-09-24T11:06:43;99720.28;;;17.83;77.65
17072;BME280;7731;50.720;6.912;2022-09-24T11:09:29;99724.09;;;17.38;78.99
17072;BME280;7731;50.720;6.912;2022-09-24T11:12:14;99723.00;;;17.62;79.36
17072;BME280;7731;50.720;6.912;2022-09-24T11:15:16;99721.84;;;17.45;79.91
17072;BME280;7731;50.720;6.912;2022-09-24T11:18:05;99711.19;;;17.17;80.77
17072;BME280;7731;50.720;6.912;2022-09-24T11:21:01;99730.22;;;16.85;82.02
17072;BME280;7731;50.720;6.912;2022-09-24T11:23:54;99726.22;;;16.92;82.69
17072;BME280;7731;50.720;6.912;2022-09-24T11:26:46;99721.78;;;16.72;83.69
17072;BME280;7731;50.720;6.912;2022-09-24T11:29:39;99723.78;;;17.01;82.19
17072;BME280;7731;50.720;6.912;2022-09-24T11:32:20;99720.56;;;17.08;81.32
17072;BME280;7731;50.720;6.912;2022-09-24T11:35:26;99719.00;;;16.85;82.92
17072;BME280;7731;50.720;6.912;2022-09-24T11:38:13;99725.78;;;16.76;82.77
17072;BME280;7731;50.720;6.912;2022-09-24T11:41:10;99718.69;;;16.89;81.95
17072;BME280;7731;50.720;6.912;2022-09-24T11:44:12;99721.97;;;16.80;83.66
17072;BME280;7731;50.720;6.912;2022-09-24T11:47:05;99719.19;;;16.72;83.55
17072;BME280;7731;50.720;6.912;2022-09-24T11:50:05;99725.03;;;16.85;83.75
17072;BME280;7731;50.720;6.912;2022-09-24T11:52:46;99713.34;;;16.58;84.26
17072;BME280;7731;50.720;6.912;2022-09-24T11:55:22;99714.94;;;16.71;84.09
17072;BME280;7731;50.720;6.912;2022-09-24T11:58:12;99711.47;;;16.60;85.54
17072;BME280;7731;50.720;6.912;2022-09-24T12:00:54;99718.66;;;16.36;86.07
17072;BME280;7731;50.720;6.912;2022-09-24T12:03:38;99712.28;;;16.61;85.53
17072;BME280;7731;50.720;6.912;2022-09-24T12:06:17;99712.50;;;16.37;88.78
17072;BME280;7731;50.720;6.912;2022-09-24T12:08:55;99707.81;;;16.84;86.37
17072;BME280;7731;50.720;6.912;2022-09-24T12:11:35;99714.69;;;16.74;88.45
17072;BME280;7731;50.720;6.912;2022-09-24T12:14:17;99711.88;;;16.45;90.24
17072;BME280;7731;50.720;6.912;2022-09-24T12:16:55;99712.97;;;16.42;91.74
17072;BME280;7731;50.720;6.912;2022-09-24T12:19:35;99707.72;;;16.53;89.89
17072;BME280;7731;50.720;6.912;2022-09-24T12:22:09;99711.75;;;16.46;90.51
17072;BME280;7731;50.720;6.912;2022-09-24T12:24:46;99710.66;;;16.81;88.11
17072;BME280;7731;50.720;6.912;2022-09-24T12:27:25;99708.47;;;16.98;85.09
17072;BME280;7731;50.720;6.912;2022-09-24T12:30:23;99701.34;;;16.78;87.92
17072;BME280;7731;50.720;6.912;2022-09-24T12:33:18;99702.28;;;17.20;83.08
17072;BME280;7731;50.720;6.912;2022-09-24T12:36:03;99703.97;;;17.61;78.47
17072;BME280;7731;50.720;6.912;2022-09-24T12:38:40;99699.91;;;17.68;76.76
17072;BME280;7731;50.720;6.912;2022-09-24T12:41:24;99706.97;;;17.26;81.06
17072;BME280;7731;50.720;6.912;2022-09-24T12:44:05;99696.03;;;17.63;78.55
17072;BME280;7731;50.720;6.912;2022-09-24T12:46:53;99698.97;;;17.39;80.68
17072;BME280;7731;50.720;6.912;2022-09-24T12:49:31;99700.97;;;17.25;79.96
17072;BME280;7731;50.720;6.912;2022-09-24T12:52:20;99698.34;;;17.46;80.57
17072;BME280;7731;50.720;6.912;2022-09-24T12:54:58;99698.78;;;17.30;82.37
17072;BME280;7731;50.720;6.912;2022-09-24T12:57:34;99691.34;;;17.47;80.91
17072;BME280;7731;50.720;6.912;2022-09-24T13:00:41;99694.72;;;17.07;85.35
17072;BME280;7731;50.720;6.912;2022-09-24T13:03:34;99689.31;;;17.20;82.55
17072;BME280;7731;50.720;6.912;2022-09-24T13:06:29;99697.22;;;16.87;84.59
17072;BME280;7731;50.720;6.912;2022-09-24T13:09:01;99697.44;;;16.84;84.18
17072;BME280;7731;50.720;6.912;2022-09-24T13:11:33;99697.34;;;17.38;80.25
17072;BME280;7731;50.720;6.912;2022-09-24T13:14:19;99682.38;;;17.20;81.93
17072;BME280;7731;50.720;6.912;2022-09-24T13:17:04;99692.25;;;16.84;83.78
17072;BME280;7731;50.720;6.912;2022-09-24T13:19:40;99683.41;;;17.08;82.92
17072;BME280;7731;50.720;6.912;2022-09-24T13:22:27;99677.63;;;16.83;85.62
17072;BME280;7731;50.720;6.912;2022-09-24T13:25:22;99689.59;;;16.74;87.31
17072;BME280;7731;50.720;6.912;2022-09-24T13:28:02;99676.78;;;16.83;85.04
17072;BME280;7731;50.720;6.912;2022-09-24T13:30:39;99689.16;;;16.37;87.42
17072;BME280;7731;50.720;6.912;2022-09-24T13:33:23;99683.44;;;16.54;88.59
17072;BME280;7731;50.720;6.912;2022-09-24T13:36:10;99689.84;;;16.71;86.47
17072;BME280;7731;50.720;6.912;2022-09-24T13:38:51;99684.81;;;16.58;88.96
17072;BME280;7731;50.720;6.912;2022-09-24T13:41:36;99684.28;;;16.76;87.05
17072;BME280;7731;50.720;6.912;2022-09-24T13:44:18;99681.69;;;16.76;86.97
17072;BME280;7731;50.720;6.912;2022-09-24T13:47:00;99688.09;;;16.39;88.30
17072;BME280;7731;50.720;6.912;2022-09-24T13:49:34;99686.91;;;16.65;87.65
17072;BME280;7731;50.720;6.912;2022-09-24T13:52:23;99689.72;;;16.73;87.77
17072;BME280;7731;50.720;6.912;2022-09-24T13:55:02;99689.75;;;16.61;86.97
17072;BME280;7731;50.720;6.912;2022-09-24T13:57:42;99693.81;;;16.54;88.14
17072;BME280;7731;50.720;6.912;2022-09-24T14:00:17;99693.75;;;16.66;88.78